Terminal Aerodrome Forecast
Issued by NWS

Home | Current Version | Previous Version | Text Only | Print | Product List | Glossary On
Versions: 1 2 3 4 5 6 7 8 9 10 11 12 13 14 15 16 17 18 19 20 21 22 23 24 25 26
000
FTUS43 KDLH 172200 AAA
TAFHYR
TAF AMD
KHYR 172219Z 1722/1818 01014G19KT P6SM SKC
     FM180300 05005KT P6SM SCT015
     FM181200 11005KT P6SM SCT015=

USA.gov is the U.S. government's official web portal to all federal, state and local government web resources and services.